sensor_id;sensor_type;location;lat;lon;timestamp;temperature;humidity
2957;DHT22;1488;51.548;7.222;2022-09-03T00:01:49;26.30;58.00
2957;DHT22;1488;51.548;7.222;2022-09-03T00:04:23;26.30;58.10
2957;DHT22;1488;51.548;7.222;2022-09-03T00:06:59;26.30;58.20
2957;DHT22;1488;51.548;7.222;2022-09-03T00:09:31;26.30;58.20
2957;DHT22;1488;51.548;7.222;2022-09-03T00:12:04;26.30;58.20
2957;DHT22;1488;51.548;7.222;2022-09-03T00:14:38;26.30;58.20
2957;DHT22;1488;51.548;7.222;2022-09-03T00:17:09;26.30;58.20
2957;DHT22;1488;51.548;7.222;2022-09-03T00:19:43;26.30;58.20
2957;DHT22;1488;51.548;7.222;2022-09-03T00:22:15;26.20;58.20
2957;DHT22;1488;51.548;7.222;2022-09-03T00:24:44;26.20;58.20
2957;DHT22;1488;51.548;7.222;2022-09-03T00:27:14;26.20;58.30
2957;DHT22;1488;51.548;7.222;2022-09-03T00:29:45;26.20;58.40
2957;DHT22;1488;51.548;7.222;2022-09-03T00:32:18;26.20;58.80
2957;DHT22;1488;51.548;7.222;2022-09-03T00:34:49;26.20;58.30
2957;DHT22;1488;51.548;7.222;2022-09-03T00:37:18;26.20;58.30
2957;DHT22;1488;51.548;7.222;2022-09-03T00:39:45;26.20;58.70
2957;DHT22;1488;51.548;7.222;2022-09-03T00:42:23;26.20;58.30
2957;DHT22;1488;51.548;7.222;2022-09-03T00:45:05;26.20;58.30
2957;DHT22;1488;51.548;7.222;2022-09-03T00:47:43;26.20;58.40
2957;DHT22;1488;51.548;7.222;2022-09-03T00:50:19;26.20;58.50
2957;DHT22;1488;51.548;7.222;2022-09-03T00:53:01;26.20;58.60
2957;DHT22;1488;51.548;7.222;2022-09-03T00:55:37;26.20;58.50
2957;DHT22;1488;51.548;7.222;2022-09-03T00:58:39;26.20;58.60
2957;DHT22;1488;51.548;7.222;2022-09-03T01:01:15;26.20;58.60
2957;DHT22;1488;51.548;7.222;2022-09-03T01:03:49;26.20;58.70
2957;DHT22;1488;51.548;7.222;2022-09-03T01:06:23;26.20;58.70
2957;DHT22;1488;51.548;7.222;2022-09-03T01:09:06;26.20;58.80
2957;DHT22;1488;51.548;7.222;2022-09-03T01:11:41;26.20;58.60
2957;DHT22;1488;51.548;7.222;2022-09-03T01:14:19;26.20;58.60
2957;DHT22;1488;51.548;7.222;2022-09-03T01:16:50;26.20;58.70
2957;DHT22;1488;51.548;7.222;2022-09-03T01:19:44;26.20;58.80
2957;DHT22;1488;51.548;7.222;2022-09-03T01:22:36;26.20;58.70
2957;DHT22;1488;51.548;7.222;2022-09-03T01:25:24;26.20;58.80
2957;DHT22;1488;51.548;7.222;2022-09-03T01:28:08;26.20;58.80
2957;DHT22;1488;51.548;7.222;2022-09-03T01:30:41;26.20;59.50
2957;DHT22;1488;51.548;7.222;2022-09-03T01:33:17;26.10;58.80
2957;DHT22;1488;51.548;7.222;2022-09-03T01:35:48;26.20;58.80
2957;DHT22;1488;51.548;7.222;2022-09-03T01:38:28;26.20;58.90
2957;DHT22;1488;51.548;7.222;2022-09-03T01:41:11;26.20;58.80
2957;DHT22;1488;51.548;7.222;2022-09-03T01:44:01;26.20;59.40
2957;DHT22;1488;51.548;7.222;2022-09-03T01:46:36;26.10;58.80
2957;DHT22;1488;51.548;7.222;2022-09-03T01:49:23;26.20;58.80
2957;DHT22;1488;51.548;7.222;2022-09-03T01:51:57;26.20;58.90
2957;DHT22;1488;51.548;7.222;2022-09-03T01:54:52;26.10;58.80
2957;DHT22;1488;51.548;7.222;2022-09-03T02:00:23;26.10;58.80
2957;DHT22;1488;51.548;7.222;2022-09-03T02:02:51;26.10;58.90
2957;DHT22;1488;51.548;7.222;2022-09-03T02:05:20;26.10;58.80
2957;DHT22;1488;51.548;7.222;2022-09-03T02:07:50;26.10;58.90
2957;DHT22;1488;51.548;7.222;2022-09-03T02:10:22;26.10;58.80
2957;DHT22;1488;51.548;7.222;2022-09-03T02:12:55;26.10;58.80
2957;DHT22;1488;51.548;7.222;2022-09-03T02:15:26;26.10;58.80
2957;DHT22;1488;51.548;7.222;2022-09-03T02:17:57;26.10;58.80
2957;DHT22;1488;51.548;7.222;2022-09-03T02:20:28;26.10;58.90
2957;DHT22;1488;51.548;7.222;2022-09-03T02:22:57;26.10;58.80
2957;DHT22;1488;51.548;7.222;2022-09-03T02:25:29;26.10;59.00
2957;DHT22;1488;51.548;7.222;2022-09-03T02:27:58;26.10;58.90
2957;DHT22;1488;51.548;7.222;2022-09-03T02:30:26;26.10;58.90
2957;DHT22;1488;51.548;7.222;2022-09-03T02:32:53;26.10;58.80
2957;DHT22;1488;51.548;7.222;2022-09-03T02:35:20;26.10;58.90
2957;DHT22;1488;51.548;7.222;2022-09-03T02:37:47;26.10;58.90
2957;DHT22;1488;51.548;7.222;2022-09-03T02:40:14;26.10;58.90
2957;DHT22;1488;51.548;7.222;2022-09-03T02:42:41;26.10;58.80
2957;DHT22;1488;51.548;7.222;2022-09-03T02:45:16;26.10;58.90
2957;DHT22;1488;51.548;7.222;2022-09-03T02:47:50;26.10;58.80
2957;DHT22;1488;51.548;7.222;2022-09-03T02:50:18;26.10;58.90
2957;DHT22;1488;51.548;7.222;2022-09-03T02:52:45;26.10;58.80
2957;DHT22;1488;51.548;7.222;2022-09-03T02:55:12;26.10;58.80
2957;DHT22;1488;51.548;7.222;2022-09-03T02:57:39;26.10;58.80
2957;DHT22;1488;51.548;7.222;2022-09-03T03:00:07;26.10;59.40
2957;DHT22;1488;51.548;7.222;2022-09-03T03:02:34;26.10;58.80
2957;DHT22;1488;51.548;7.222;2022-09-03T03:05:03;26.10;58.80
2957;DHT22;1488;51.548;7.222;2022-09-03T03:07:36;26.10;58.90
2957;DHT22;1488;51.548;7.222;2022-09-03T03:10:05;26.10;58.90
2957;DHT22;1488;51.548;7.222;2022-09-03T03:12:32;26.10;58.90
2957;DHT22;1488;51.548;7.222;2022-09-03T03:14:59;26.10;59.50
2957;DHT22;1488;51.548;7.222;2022-09-03T03:17:26;26.10;58.80
2957;DHT22;1488;51.548;7.222;2022-09-03T03:19:53;26.10;58.80
2957;DHT22;1488;51.548;7.222;2022-09-03T03:22:21;26.10;58.80
2957;DHT22;1488;51.548;7.222;2022-09-03T03:24:48;26.10;58.80
2957;DHT22;1488;51.548;7.222;2022-09-03T03:27:17;26.10;58.90
2957;DHT22;1488;51.548;7.222;2022-09-03T03:29:44;26.10;58.90
2957;DHT22;1488;51.548;7.222;2022-09-03T03:32:11;26.10;58.90
2957;DHT22;1488;51.548;7.222;2022-09-03T03:34:38;26.00;59.10
2957;DHT22;1488;51.548;7.222;2022-09-03T03:37:05;26.10;58.90
2957;DHT22;1488;51.548;7.222;2022-09-03T03:39:33;26.10;58.90
2957;DHT22;1488;51.548;7.222;2022-09-03T03:42:00;26.10;58.80
2957;DHT22;1488;51.548;7.222;2022-09-03T03:44:27;26.00;58.80
2957;DHT22;1488;51.548;7.222;2022-09-03T03:46:54;26.10;58.90
2957;DHT22;1488;51.548;7.222;2022-09-03T03:49:21;26.00;58.80
2957;DHT22;1488;51.548;7.222;2022-09-03T03:51:47;26.00;58.80
2957;DHT22;1488;51.548;7.222;2022-09-03T03:54:14;26.10;58.90
2957;DHT22;1488;51.548;7.222;2022-09-03T03:56:43;26.10;58.90
2957;DHT22;1488;51.548;7.222;2022-09-03T03:59:09;26.00;58.80
2957;DHT22;1488;51.548;7.222;2022-09-03T04:01:36;26.00;58.90
2957;DHT22;1488;51.548;7.222;2022-09-03T04:04:03;26.00;58.80
2957;DHT22;1488;51.548;7.222;2022-09-03T04:06:30;26.00;58.80
2957;DHT22;1488;51.548;7.222;2022-09-03T04:08:57;26.00;58.80
2957;DHT22;1488;51.548;7.222;2022-09-03T04:11:25;26.00;58.80
2957;DHT22;1488;51.548;7.222;2022-09-03T04:13:53;26.00;58.90
2957;DHT22;1488;51.548;7.222;2022-09-03T04:16:22;26.00;58.80
2957;DHT22;1488;51.548;7.222;2022-09-03T04:18:49;26.00;58.80
2957;DHT22;1488;51.548;7.222;2022-09-03T04:21:17;26.00;58.90
2957;DHT22;1488;51.548;7.222;2022-09-03T04:23:46;26.00;58.80
2957;DHT22;1488;51.548;7.222;2022-09-03T04:26:15;26.00;58.80
2957;DHT22;1488;51.548;7.222;2022-09-03T04:28:42;26.00;58.80
2957;DHT22;1488;51.548;7.222;2022-09-03T04:31:12;26.00;58.90
2957;DHT22;1488;51.548;7.222;2022-09-03T04:33:40;26.00;58.90
2957;DHT22;1488;51.548;7.222;2022-09-03T04:36:08;26.00;58.80
2957;DHT22;1488;51.548;7.222;2022-09-03T04:38:38;26.00;58.90
2957;DHT22;1488;51.548;7.222;2022-09-03T04:41:05;26.00;58.90
2957;DHT22;1488;51.548;7.222;2022-09-03T04:43:32;26.00;58.90
2957;DHT22;1488;51.548;7.222;2022-09-03T04:46:01;26.00;58.80
2957;DHT22;1488;51.548;7.222;2022-09-03T04:48:31;26.00;59.40
2957;DHT22;1488;51.548;7.222;2022-09-03T04:51:01;26.00;58.80
2957;DHT22;1488;51.548;7.222;2022-09-03T04:53:29;26.00;58.90
2957;DHT22;1488;51.548;7.222;2022-09-03T04:55:56;26.00;58.80
2957;DHT22;1488;51.548;7.222;2022-09-03T04:58:23;26.00;58.80
2957;DHT22;1488;51.548;7.222;2022-09-03T05:00:50;26.00;58.80
2957;DHT22;1488;51.548;7.222;2022-09-03T05:03:17;26.00;58.80
2957;DHT22;1488;51.548;7.222;2022-09-03T05:05:52;26.00;58.80
2957;DHT22;1488;51.548;7.222;2022-09-03T05:08:19;26.00;58.80
2957;DHT22;1488;51.548;7.222;2022-09-03T05:10:46;26.00;58.80
2957;DHT22;1488;51.548;7.222;2022-09-03T05:13:13;26.00;58.80
2957;DHT22;1488;51.548;7.222;2022-09-03T05:15:40;26.00;58.70
2957;DHT22;1488;51.548;7.222;2022-09-03T05:18:08;26.00;58.80
2957;DHT22;1488;51.548;7.222;2022-09-03T05:20:35;26.00;58.80
2957;DHT22;1488;51.548;7.222;2022-09-03T05:23:03;26.00;58.80
2957;DHT22;1488;51.548;7.222;2022-09-03T05:25:30;26.00;58.80
2957;DHT22;1488;51.548;7.222;2022-09-03T05:27:57;26.00;58.80
2957;DHT22;1488;51.548;7.222;2022-09-03T05:30:24;26.00;58.80
2957;DHT22;1488;51.548;7.222;2022-09-03T05:32:51;26.00;58.80
2957;DHT22;1488;51.548;7.222;2022-09-03T05:35:18;26.00;58.80
2957;DHT22;1488;51.548;7.222;2022-09-03T05:37:45;26.00;58.80
2957;DHT22;1488;51.548;7.222;2022-09-03T05:40:13;26.00;58.80
2957;DHT22;1488;51.548;7.222;2022-09-03T05:42:40;26.00;58.80
2957;DHT22;1488;51.548;7.222;2022-09-03T05:45:08;26.00;58.80
2957;DHT22;1488;51.548;7.222;2022-09-03T05:47:37;26.00;58.80
2957;DHT22;1488;51.548;7.222;2022-09-03T05:50:06;26.00;58.80
2957;DHT22;1488;51.548;7.222;2022-09-03T05:52:35;26.00;58.80
2957;DHT22;1488;51.548;7.222;2022-09-03T05:55:02;26.00;58.70
2957;DHT22;1488;51.548;7.222;2022-09-03T05:57:30;26.00;58.80
2957;DHT22;1488;51.548;7.222;2022-09-03T05:59:57;26.00;58.80
2957;DHT22;1488;51.548;7.222;2022-09-03T06:02:24;26.00;58.80
2957;DHT22;1488;51.548;7.222;2022-09-03T06:04:51;26.00;58.80
2957;DHT22;1488;51.548;7.222;2022-09-03T06:07:19;26.00;58.70
2957;DHT22;1488;51.548;7.222;2022-09-03T06:09:46;26.00;58.80
2957;DHT22;1488;51.548;7.222;2022-09-03T06:12:13;26.00;58.80
2957;DHT22;1488;51.548;7.222;2022-09-03T06:14:41;26.00;58.80
2957;DHT22;1488;51.548;7.222;2022-09-03T06:17:08;26.00;58.80
2957;DHT22;1488;51.548;7.222;2022-09-03T06:19:37;26.00;59.30
2957;DHT22;1488;51.548;7.222;2022-09-03T06:22:04;26.00;58.80
2957;DHT22;1488;51.548;7.222;2022-09-03T06:24:31;26.00;58.80
2957;DHT22;1488;51.548;7.222;2022-09-03T06:26:57;26.00;58.80
2957;DHT22;1488;51.548;7.222;2022-09-03T06:29:24;26.00;58.80
2957;DHT22;1488;51.548;7.222;2022-09-03T06:31:53;26.00;58.80
2957;DHT22;1488;51.548;7.222;2022-09-03T06:34:21;26.00;58.80
2957;DHT22;1488;51.548;7.222;2022-09-03T06:36:50;26.00;58.80
2957;DHT22;1488;51.548;7.222;2022-09-03T06:39:17;26.00;58.80
2957;DHT22;1488;51.548;7.222;2022-09-03T06:41:44;26.00;58.80
2957;DHT22;1488;51.548;7.222;2022-09-03T06:44:16;26.00;58.80
2957;DHT22;1488;51.548;7.222;2022-09-03T06:46:43;26.00;58.80
2957;DHT22;1488;51.548;7.222;2022-09-03T06:49:14;26.00;58.90
2957;DHT22;1488;51.548;7.222;2022-09-03T06:51:41;26.10;58.90
2957;DHT22;1488;51.548;7.222;2022-09-03T06:54:10;26.00;58.90
2957;DHT22;1488;51.548;7.222;2022-09-03T06:56:38;26.10;58.90
2957;DHT22;1488;51.548;7.222;2022-09-03T06:59:07;26.10;58.70
2957;DHT22;1488;51.548;7.222;2022-09-03T07:01:34;26.10;58.60
2957;DHT22;1488;51.548;7.222;2022-09-03T07:04:05;26.00;58.60
2957;DHT22;1488;51.548;7.222;2022-09-03T07:06:35;26.10;58.70
2957;DHT22;1488;51.548;7.222;2022-09-03T07:09:03;25.80;57.30
2957;DHT22;1488;51.548;7.222;2022-09-03T07:11:31;25.50;57.30
2957;DHT22;1488;51.548;7.222;2022-09-03T07:14:01;25.40;57.30
2957;DHT22;1488;51.548;7.222;2022-09-03T07:16:29;25.40;57.40
2957;DHT22;1488;51.548;7.222;2022-09-03T07:18:56;25.40;57.50
2957;DHT22;1488;51.548;7.222;2022-09-03T07:21:26;25.40;57.30
2957;DHT22;1488;51.548;7.222;2022-09-03T07:23:55;25.40;57.30
2957;DHT22;1488;51.548;7.222;2022-09-03T07:26:24;25.40;57.40
2957;DHT22;1488;51.548;7.222;2022-09-03T07:28:51;25.30;57.30
2957;DHT22;1488;51.548;7.222;2022-09-03T07:31:20;25.30;57.40
2957;DHT22;1488;51.548;7.222;2022-09-03T07:33:51;25.40;57.50
2957;DHT22;1488;51.548;7.222;2022-09-03T07:36:21;25.30;57.50
2957;DHT22;1488;51.548;7.222;2022-09-03T07:38:48;25.30;57.40
2957;DHT22;1488;51.548;7.222;2022-09-03T07:41:16;25.30;57.50
2957;DHT22;1488;51.548;7.222;2022-09-03T07:43:44;25.30;57.60
2957;DHT22;1488;51.548;7.222;2022-09-03T07:46:13;25.30;57.60
2957;DHT22;1488;51.548;7.222;2022-09-03T07:48:41;25.40;57.70
2957;DHT22;1488;51.548;7.222;2022-09-03T07:51:08;25.40;57.60
2957;DHT22;1488;51.548;7.222;2022-09-03T07:53:35;25.40;58.20
2957;DHT22;1488;51.548;7.222;2022-09-03T07:56:03;25.40;57.60
2957;DHT22;1488;51.548;7.222;2022-09-03T07:58:34;25.50;57.70
2957;DHT22;1488;51.548;7.222;2022-09-03T08:01:04;25.50;57.70
2957;DHT22;1488;51.548;7.222;2022-09-03T08:03:32;25.50;57.70
2957;DHT22;1488;51.548;7.222;2022-09-03T08:06:00;25.60;57.70
2957;DHT22;1488;51.548;7.222;2022-09-03T08:08:28;25.60;57.70
2957;DHT22;1488;51.548;7.222;2022-09-03T08:11:01;25.60;57.70
2957;DHT22;1488;51.548;7.222;2022-09-03T08:13:28;25.60;57.70
2957;DHT22;1488;51.548;7.222;2022-09-03T08:15:56;25.70;58.40
2957;DHT22;1488;51.548;7.222;2022-09-03T08:18:25;25.70;57.90
2957;DHT22;1488;51.548;7.222;2022-09-03T08:20:51;25.70;57.90
2957;DHT22;1488;51.548;7.222;2022-09-03T08:23:18;25.70;57.90
2957;DHT22;1488;51.548;7.222;2022-09-03T08:25:45;25.70;57.90
2957;DHT22;1488;51.548;7.222;2022-09-03T08:28:12;25.80;57.90
2957;DHT22;1488;51.548;7.222;2022-09-03T08:30:39;25.80;58.00
2957;DHT22;1488;51.548;7.222;2022-09-03T08:33:07;25.80;58.00
2957;DHT22;1488;51.548;7.222;2022-09-03T08:35:34;25.80;58.00
2957;DHT22;1488;51.548;7.222;2022-09-03T08:38:02;25.90;58.10
2957;DHT22;1488;51.548;7.222;2022-09-03T08:40:32;25.80;58.10
2957;DHT22;1488;51.548;7.222;2022-09-03T08:43:08;25.90;58.30
2957;DHT22;1488;51.548;7.222;2022-09-03T08:45:38;25.90;58.20
2957;DHT22;1488;51.548;7.222;2022-09-03T08:48:11;25.90;58.30
2957;DHT22;1488;51.548;7.222;2022-09-03T08:50:41;26.00;58.30
2957;DHT22;1488;51.548;7.222;2022-09-03T08:53:13;26.00;58.30
2957;DHT22;1488;51.548;7.222;2022-09-03T08:55:49;26.00;58.90
2957;DHT22;1488;51.548;7.222;2022-09-03T08:58:17;26.00;58.30
2957;DHT22;1488;51.548;7.222;2022-09-03T09:00:49;26.00;58.30
2957;DHT22;1488;51.548;7.222;2022-09-03T09:03:46;26.00;58.30
2957;DHT22;1488;51.548;7.222;2022-09-03T09:06:25;26.10;58.20
2957;DHT22;1488;51.548;7.222;2022-09-03T09:09:01;26.00;58.30
2957;DHT22;1488;51.548;7.222;2022-09-03T09:11:39;26.00;58.40
2957;DHT22;1488;51.548;7.222;2022-09-03T09:14:16;26.10;58.40
2957;DHT22;1488;51.548;7.222;2022-09-03T09:16:49;26.10;58.40
2957;DHT22;1488;51.548;7.222;2022-09-03T09:19:34;26.00;58.50
2957;DHT22;1488;51.548;7.222;2022-09-03T09:22:08;26.10;58.60
2957;DHT22;1488;51.548;7.222;2022-09-03T09:24:39;26.10;58.70
2957;DHT22;1488;51.548;7.222;2022-09-03T09:27:07;26.10;58.70
2957;DHT22;1488;51.548;7.222;2022-09-03T09:29:36;26.00;58.70
2957;DHT22;1488;51.548;7.222;2022-09-03T09:32:06;26.10;58.70
2957;DHT22;1488;51.548;7.222;2022-09-03T09:34:37;26.10;58.80
2957;DHT22;1488;51.548;7.222;2022-09-03T09:37:08;26.10;58.70
2957;DHT22;1488;51.548;7.222;2022-09-03T09:39:35;26.10;58.80
2957;DHT22;1488;51.548;7.222;2022-09-03T09:42:06;26.10;58.80
2957;DHT22;1488;51.548;7.222;2022-09-03T09:44:34;26.10;58.80
2957;DHT22;1488;51.548;7.222;2022-09-03T09:47:04;26.10;58.90
2957;DHT22;1488;51.548;7.222;2022-09-03T09:49:34;26.10;58.90
2957;DHT22;1488;51.548;7.222;2022-09-03T09:52:04;26.00;58.80
2957;DHT22;1488;51.548;7.222;2022-09-03T09:54:33;26.10;58.90
2957;DHT22;1488;51.548;7.222;2022-09-03T09:57:01;26.10;58.90
2957;DHT22;1488;51.548;7.222;2022-09-03T09:59:30;26.10;58.90
2957;DHT22;1488;51.548;7.222;2022-09-03T10:02:09;26.10;59.00
2957;DHT22;1488;51.548;7.222;2022-09-03T10:04:37;26.20;59.00
2957;DHT22;1488;51.548;7.222;2022-09-03T10:07:21;26.10;58.90
2957;DHT22;1488;51.548;7.222;2022-09-03T10:09:58;26.20;59.00
2957;DHT22;1488;51.548;7.222;2022-09-03T10:12:30;26.10;58.90
2957;DHT22;1488;51.548;7.222;2022-09-03T10:15:07;26.10;59.60
2957;DHT22;1488;51.548;7.222;2022-09-03T10:17:43;26.10;59.00
2957;DHT22;1488;51.548;7.222;2022-09-03T10:20:17;26.10;59.10
2957;DHT22;1488;51.548;7.222;2022-09-03T10:23:00;26.10;59.70
2957;DHT22;1488;51.548;7.222;2022-09-03T10:25:35;26.10;59.10
2957;DHT22;1488;51.548;7.222;2022-09-03T10:28:06;26.10;59.00
2957;DHT22;1488;51.548;7.222;2022-09-03T10:30:41;26.10;59.10
2957;DHT22;1488;51.548;7.222;2022-09-03T10:33:15;26.20;59.80
2957;DHT22;1488;51.548;7.222;2022-09-03T10:35:49;26.10;59.10
2957;DHT22;1488;51.548;7.222;2022-09-03T10:38:26;26.20;59.20
2957;DHT22;1488;51.548;7.222;2022-09-03T10:41:00;26.20;59.10
2957;DHT22;1488;51.548;7.222;2022-09-03T10:46:25;26.20;59.20
2957;DHT22;1488;51.548;7.222;2022-09-03T10:49:12;26.20;59.20
2957;DHT22;1488;51.548;7.222;2022-09-03T10:51:42;26.20;59.20
2957;DHT22;1488;51.548;7.222;2022-09-03T10:54:35;26.20;59.30
2957;DHT22;1488;51.548;7.222;2022-09-03T10:57:12;26.20;59.30
2957;DHT22;1488;51.548;7.222;2022-09-03T16:27:19;26.30;61.00
2957;DHT22;1488;51.548;7.222;2022-09-03T16:29:59;26.30;61.20
2957;DHT22;1488;51.548;7.222;2022-09-03T16:32:38;26.30;61.00
2957;DHT22;1488;51.548;7.222;2022-09-03T16:35:16;26.30;61.10
2957;DHT22;1488;51.548;7.222;2022-09-03T16:37:56;26.30;61.20
2957;DHT22;1488;51.548;7.222;2022-09-03T16:40:34;26.40;61.30
2957;DHT22;1488;51.548;7.222;2022-09-03T16:43:10;26.30;61.10
2957;DHT22;1488;51.548;7.222;2022-09-03T16:45:46;26.40;61.20
2957;DHT22;1488;51.548;7.222;2022-09-03T16:48:25;26.40;61.10
2957;DHT22;1488;51.548;7.222;2022-09-03T16:51:05;26.40;61.10
2957;DHT22;1488;51.548;7.222;2022-09-03T16:53:42;26.50;61.10
2957;DHT22;1488;51.548;7.222;2022-09-03T16:59:26;26.50;61.10
2957;DHT22;1488;51.548;7.222;2022-09-03T17:02:06;26.50;61.10
2957;DHT22;1488;51.548;7.222;2022-09-03T17:04:57;26.50;61.10
2957;DHT22;1488;51.548;7.222;2022-09-03T17:07:40;26.50;61.10
2957;DHT22;1488;51.548;7.222;2022-09-03T17:10:19;26.40;61.00
2957;DHT22;1488;51.548;7.222;2022-09-03T17:12:53;26.40;61.10
2957;DHT22;1488;51.548;7.222;2022-09-03T17:15:30;26.50;61.20
2957;DHT22;1488;51.548;7.222;2022-09-03T17:18:18;26.40;61.00
2957;DHT22;1488;51.548;7.222;2022-09-03T17:20:59;26.40;61.20
2957;DHT22;1488;51.548;7.222;2022-09-03T17:23:47;26.40;61.40
2957;DHT22;1488;51.548;7.222;2022-09-03T17:26:20;26.40;61.50
2957;DHT22;1488;51.548;7.222;2022-09-03T17:29:00;26.40;61.60
2957;DHT22;1488;51.548;7.222;2022-09-03T17:31:40;26.40;61.50
2957;DHT22;1488;51.548;7.222;2022-09-03T17:34:32;26.40;61.60
2957;DHT22;1488;51.548;7.222;2022-09-03T17:37:10;26.40;61.60
2957;DHT22;1488;51.548;7.222;2022-09-03T17:40:11;26.40;61.60
2957;DHT22;1488;51.548;7.222;2022-09-03T17:42:50;26.40;61.50
2957;DHT22;1488;51.548;7.222;2022-09-03T17:45:30;26.40;61.70
2957;DHT22;1488;51.548;7.222;2022-09-03T17:48:19;26.40;61.70
2957;DHT22;1488;51.548;7.222;2022-09-03T17:50:52;26.40;61.70
2957;DHT22;1488;51.548;7.222;2022-09-03T17:53:23;26.40;62.70
2957;DHT22;1488;51.548;7.222;2022-09-03T17:55:58;26.40;61.70
2957;DHT22;1488;51.548;7.222;2022-09-03T17:58:31;26.40;62.40
2957;DHT22;1488;51.548;7.222;2022-09-03T18:01:05;26.40;61.80
2957;DHT22;1488;51.548;7.222;2022-09-03T18:03:43;26.40;61.80
2957;DHT22;1488;51.548;7.222;2022-09-03T18:06:23;26.40;62.10
2957;DHT22;1488;51.548;7.222;2022-09-03T18:08:54;26.40;62.10
2957;DHT22;1488;51.548;7.222;2022-09-03T18:11:29;26.40;62.20
2957;DHT22;1488;51.548;7.222;2022-09-03T18:14:01;26.40;62.30
2957;DHT22;1488;51.548;7.222;2022-09-03T18:16:34;26.40;62.20
2957;DHT22;1488;51.548;7.222;2022-09-03T18:19:16;26.40;62.40
2957;DHT22;1488;51.548;7.222;2022-09-03T18:21:57;26.40;62.60
2957;DHT22;1488;51.548;7.222;2022-09-03T18:24:45;26.40;62.70
2957;DHT22;1488;51.548;7.222;2022-09-03T18:27:37;26.40;62.70
2957;DHT22;1488;51.548;7.222;2022-09-03T18:30:23;26.40;62.60
2957;DHT22;1488;51.548;7.222;2022-09-03T18:33:07;26.40;62.80
2957;DHT22;1488;51.548;7.222;2022-09-03T18:35:54;26.40;62.80
2957;DHT22;1488;51.548;7.222;2022-09-03T18:38:39;26.40;63.20
2957;DHT22;1488;51.548;7.222;2022-09-03T18:41:48;26.40;63.20
2957;DHT22;1488;51.548;7.222;2022-09-03T18:44:45;26.40;63.00
2957;DHT22;1488;51.548;7.222;2022-09-03T18:47:41;26.40;63.00
2957;DHT22;1488;51.548;7.222;2022-09-03T18:50:31;26.40;63.80
2957;DHT22;1488;51.548;7.222;2022-09-03T18:53:27;26.40;63.40
2957;DHT22;1488;51.548;7.222;2022-09-03T18:56:22;26.40;63.50
2957;DHT22;1488;51.548;7.222;2022-09-03T18:59:17;26.40;63.40
2957;DHT22;1488;51.548;7.222;2022-09-03T19:02:09;26.40;64.30
2957;DHT22;1488;51.548;7.222;2022-09-03T19:05:05;26.40;63.50
2957;DHT22;1488;51.548;7.222;2022-09-03T19:08:01;26.40;63.90
2957;DHT22;1488;51.548;7.222;2022-09-03T19:10:54;26.40;63.50
2957;DHT22;1488;51.548;7.222;2022-09-03T19:13:41;26.40;64.50
2957;DHT22;1488;51.548;7.222;2022-09-03T19:16:33;26.40;63.70
2957;DHT22;1488;51.548;7.222;2022-09-03T19:19:39;26.40;63.70
2957;DHT22;1488;51.548;7.222;2022-09-03T19:22:33;26.40;63.90
2957;DHT22;1488;51.548;7.222;2022-09-03T19:25:18;26.40;64.10
2957;DHT22;1488;51.548;7.222;2022-09-03T19:28:14;26.40;64.20
2957;DHT22;1488;51.548;7.222;2022-09-03T19:31:21;26.40;64.20
2957;DHT22;1488;51.548;7.222;2022-09-03T19:34:15;26.40;64.40
2957;DHT22;1488;51.548;7.222;2022-09-03T19:37:06;26.40;64.60
2957;DHT22;1488;51.548;7.222;2022-09-03T19:40:02;26.40;65.40
2957;DHT22;1488;51.548;7.222;2022-09-03T19:43:00;26.40;65.10
2957;DHT22;1488;51.548;7.222;2022-09-03T19:45:55;26.40;65.60
2957;DHT22;1488;51.548;7.222;2022-09-03T19:48:51;26.40;65.60
2957;DHT22;1488;51.548;7.222;2022-09-03T19:51:43;26.40;64.90
2957;DHT22;1488;51.548;7.222;2022-09-03T19:54:41;26.40;64.50
2957;DHT22;1488;51.548;7.222;2022-09-03T19:57:27;26.40;64.20
2957;DHT22;1488;51.548;7.222;2022-09-03T20:00:13;26.40;64.20
2957;DHT22;1488;51.548;7.222;2022-09-03T20:02:58;26.40;64.40
2957;DHT22;1488;51.548;7.222;2022-09-03T20:05:44;26.40;64.20
2957;DHT22;1488;51.548;7.222;2022-09-03T20:08:29;26.40;64.20
2957;DHT22;1488;51.548;7.222;2022-09-03T20:11:18;26.40;64.20
2957;DHT22;1488;51.548;7.222;2022-09-03T20:13:45;26.50;64.30
2957;DHT22;1488;51.548;7.222;2022-09-03T20:16:34;26.50;64.20
2957;DHT22;1488;51.548;7.222;2022-09-03T20:19:13;26.50;64.20
2957;DHT22;1488;51.548;7.222;2022-09-03T20:21:48;26.50;64.20
2957;DHT22;1488;51.548;7.222;2022-09-03T20:24:31;26.50;64.20
2957;DHT22;1488;51.548;7.222;2022-09-03T20:27:12;26.50;64.20
2957;DHT22;1488;51.548;7.222;2022-09-03T20:29:51;26.50;65.10
2957;DHT22;1488;51.548;7.222;2022-09-03T20:35:35;26.50;64.20
2957;DHT22;1488;51.548;7.222;2022-09-03T20:38:16;26.50;64.10
2957;DHT22;1488;51.548;7.222;2022-09-03T20:40:48;26.50;64.20
2957;DHT22;1488;51.548;7.222;2022-09-03T20:43:40;26.50;64.30
2957;DHT22;1488;51.548;7.222;2022-09-03T20:46:28;26.50;64.30
2957;DHT22;1488;51.548;7.222;2022-09-03T20:49:06;26.50;64.60
2957;DHT22;1488;51.548;7.222;2022-09-03T20:51:41;26.50;64.50
2957;DHT22;1488;51.548;7.222;2022-09-03T20:54:19;26.50;64.70
2957;DHT22;1488;51.548;7.222;2022-09-03T21:00:00;26.50;64.80
2957;DHT22;1488;51.548;7.222;2022-09-03T21:02:46;26.50;64.80
2957;DHT22;1488;51.548;7.222;2022-09-03T21:05:21;26.50;64.90
2957;DHT22;1488;51.548;7.222;2022-09-03T21:08:02;26.50;65.00
2957;DHT22;1488;51.548;7.222;2022-09-03T21:10:34;26.50;65.20
2957;DHT22;1488;51.548;7.222;2022-09-03T21:13:08;26.50;65.00
2957;DHT22;1488;51.548;7.222;2022-09-03T21:15:45;26.50;64.90
2957;DHT22;1488;51.548;7.222;2022-09-03T21:18:21;26.50;65.00
2957;DHT22;1488;51.548;7.222;2022-09-03T21:20:55;26.50;65.20
2957;DHT22;1488;51.548;7.222;2022-09-03T21:23:28;26.50;65.20
2957;DHT22;1488;51.548;7.222;2022-09-03T21:26:06;26.50;65.20
2957;DHT22;1488;51.548;7.222;2022-09-03T21:28:39;26.50;65.20
2957;DHT22;1488;51.548;7.222;2022-09-03T21:31:14;26.50;65.30
2957;DHT22;1488;51.548;7.222;2022-09-03T21:33:47;26.50;66.20
2957;DHT22;1488;51.548;7.222;2022-09-03T21:36:18;26.50;65.20
2957;DHT22;1488;51.548;7.222;2022-09-03T21:38:51;26.50;65.30
2957;DHT22;1488;51.548;7.222;2022-09-03T21:41:24;26.50;65.30
2957;DHT22;1488;51.548;7.222;2022-09-03T21:43:57;26.50;65.40
2957;DHT22;1488;51.548;7.222;2022-09-03T21:46:31;26.50;66.20
2957;DHT22;1488;51.548;7.222;2022-09-03T21:49:00;26.50;65.40
2957;DHT22;1488;51.548;7.222;2022-09-03T21:51:32;26.50;65.50
2957;DHT22;1488;51.548;7.222;2022-09-03T21:54:06;26.50;65.50
2957;DHT22;1488;51.548;7.222;2022-09-03T21:56:59;26.50;65.50
2957;DHT22;1488;51.548;7.222;2022-09-03T21:59:50;26.60;65.30
2957;DHT22;1488;51.548;7.222;2022-09-03T22:02:23;26.50;65.40
2957;DHT22;1488;51.548;7.222;2022-09-03T22:04:50;26.50;65.60
2957;DHT22;1488;51.548;7.222;2022-09-03T22:07:25;26.50;65.60
2957;DHT22;1488;51.548;7.222;2022-09-03T22:13:19;26.50;65.50
2957;DHT22;1488;51.548;7.222;2022-09-03T22:15:49;26.50;65.50
2957;DHT22;1488;51.548;7.222;2022-09-03T22:18:21;26.50;65.30
2957;DHT22;1488;51.548;7.222;2022-09-03T22:20:56;26.50;65.40
2957;DHT22;1488;51.548;7.222;2022-09-03T22:23:29;26.50;65.40
2957;DHT22;1488;51.548;7.222;2022-09-03T22:26:18;26.50;65.40
2957;DHT22;1488;51.548;7.222;2022-09-03T22:28:56;26.50;65.40
2957;DHT22;1488;51.548;7.222;2022-09-03T22:31:37;26.50;65.30
2957;DHT22;1488;51.548;7.222;2022-09-03T22:34:19;26.50;65.30
2957;DHT22;1488;51.548;7.222;2022-09-03T22:36:50;26.50;65.30